Date,TemperatureHighF,TemperatureAvgF,TemperatureLowF,DewpointHighF,DewpointAvgF,DewpointLowF,HumidityHigh,HumidityAvg,HumidityLow,PressureMaxIn,PressureMinIn,WindSpeedMaxMPH,WindSpeedAvgMPH,GustSpeedMaxMPH,PrecipitationSumIn
2013-1-1,22.8,16.7,11.7,16.5,5.8,-99.9,85,77,70,29.82,29.67,8,0,8,0.00
2013-1-2,32.8,20.2,-90.0,21.8,10.8,-99.9,87,73,61,29.77,29.64,17,3,17,0.00
2013-1-3,32.9,24.7,-90.0,27.7,19.8,-99.9,100,84,76,29.84,29.70,13,1,13,0.00
2013-1-7,43.0,39.7,37.7,28.1,19.1,-99.9,63,56,55,29.64,29.60,13,4,13,0.00
2013-1-8,51.5,38.9,-34.8,31.8,19.3,-99.9,73,58,43,29.65,29.52,19,5,19,0.00
2013-1-11,58.4,58.4,58.4,47.5,47.5,47.5,67,67,67,29.19,29.19,14,6,14,0.00
2013-1-15,29.0,22.8,18.3,16.4,6.5,-99.9,78,65,58,29.79,29.67,0,0,8,0.01
2013-1-16,40.8,27.6,17.2,27.0,14.1,-99.9,82,67,47,29.68,29.48,13,4,23,0.05
2013-1-17,39.4,31.7,28.9,30.1,14.5,-99.9,87,65,47,29.96,29.62,17,3,17,0.01
2013-1-18,54.7,39.4,-23.6,32.1,22.4,-99.9,77,58,43,29.96,29.54,29,8,29,0.01
2013-1-19,58.4,45.1,38.2,38.4,24.8,-99.9,74,57,42,29.66,29.40,36,7,36,0.00
2013-1-20,41.0,22.7,-90.0,23.5,4.1,-99.9,88,57,41,29.88,29.66,20,3,20,0.00
2013-1-21,18.4,13.8,-40.9,12.2,-3.7,-99.9,79,54,40,29.91,29.83,30,4,30,0.00
2013-1-22,18.8,12.0,-47.2,12.2,-1.7,-99.9,82,63,58,30.00,29.85,12,0,12,0.00
2013-1-23,42.3,23.4,10.8,22.8,9.1,-99.9,88,66,45,29.93,29.66,22,3,22,0.00
2013-1-24,26.4,16.9,-40.4,11.7,-4.0,-99.9,82,54,47,30.12,29.74,21,5,21,0.00
2013-1-25,44.2,31.4,24.7,23.4,12.6,-99.9,83,54,39,29.75,29.59,18,2,18,0.00
2013-1-26,38.0,27.0,16.3,22.7,9.2,-99.9,73,56,39,29.91,29.75,14,2,14,0.00
2013-1-27,52.2,36.5,-90.0,49.4,27.6,-99.9,94,82,62,29.77,29.35,25,5,25,0.26
2013-1-28,71.5,58.5,-90.0,61.3,50.3,-99.9,92,82,71,29.42,29.26,20,5,20,0.00
2013-1-29,64.9,55.5,-90.0,59.1,49.9,-99.9,95,89,78,29.26,28.94,27,4,27,0.54
2013-1-30,38.4,30.7,25.2,37.0,21.1,-99.9,100,81,64,29.41,28.85,42,6,42,0.16
2013-1-31,25.9,19.6,-90.0,18.7,9.4,-99.9,75,67,53,29.92,29.41,26,5,26,0.00
2013-2-1,28.5,13.0,-90.0,18.7,-1.2,-99.9,82,61,49,29.98,29.68,19,3,19,0.00
2013-2-2,35.5,28.5,-90.0,23.7,18.0,-99.9,90,67,58,29.69,29.55,28,4,28,0.01
2013-2-3,34.9,29.1,25.4,27.0,19.3,14.9,92,68,46,29.73,29.46,30,4,30,0.01
2013-2-4,43.7,30.9,-90.0,31.5,19.4,-99.9,81,70,61,29.51,29.30,21,3,21,0.21
2013-2-5,50.5,34.3,-90.0,35.3,24.1,-99.9,88,74,54,29.64,29.39,24,3,24,0.22
2013-2-6,53.2,39.2,27.0,36.2,22.5,-99.9,92,67,41,29.71,29.50,21,3,21,0.03
2013-2-7,46.7,38.5,-90.0,41.9,30.4,-99.9,94,83,53,29.61,29.37,20,3,20,0.47
2013-2-8,34.4,31.3,-22.0,32.8,23.7,-99.9,100,84,80,29.89,29.61,22,2,22,0.00
2013-2-9,40.5,33.1,29.0,33.6,19.8,-99.9,89,77,69,29.85,29.46,20,5,20,0.04
2013-2-10,62.3,45.6,-90.0,51.3,32.3,-99.9,95,74,36,29.47,28.95,41,9,41,0.40
2013-2-11,48.6,37.6,-24.9,29.3,21.7,-99.9,81,60,45,29.67,29.25,39,6,39,0.00
2013-2-12,43.1,32.2,24.7,31.2,19.3,-99.9,100,73,52,29.68,29.45,7,0,7,0.00
2013-2-13,51.1,37.5,-90.0,33.4,23.5,-99.9,84,67,51,29.46,29.31,19,2,19,0.00
2013-2-18,40.7,36.8,35.2,36.7,22.0,-99.9,92,82,89,29.18,29.09,24,9,24,0.23
2013-2-19,25.8,21.8,19.5,12.5,6.0,-99.9,66,59,52,29.83,29.74,18,1,21,0.00
2013-2-20,23.8,17.3,-34.8,14.3,4.3,-99.9,100,67,60,29.95,29.81,16,2,16,0.00
2013-2-21,31.2,21.2,-90.0,28.4,13.0,-99.9,100,85,74,29.84,29.32,20,4,22,0.00
2013-2-22,32.1,28.3,22.4,30.1,21.7,-99.9,94,86,80,29.55,29.28,22,4,22,0.03
2013-2-23,33.2,21.7,-90.0,22.8,12.8,-99.9,100,79,67,29.55,29.50,12,1,12,0.12
2013-2-24,42.9,29.2,-90.0,28.2,18.0,-99.9,90,69,46,29.62,29.51,14,2,14,0.21
2013-2-25,45.0,33.8,25.6,32.1,17.7,-99.9,87,70,56,29.59,29.26,22,3,22,0.03
2013-2-26,37.4,33.0,31.6,32.7,27.0,-99.9,95,89,74,29.27,28.97,20,4,20,0.18
2013-2-27,35.2,31.1,-90.0,31.4,25.5,-99.9,94,88,87,29.41,29.19,25,4,25,0.26
2013-2-28,35.5,29.7,-90.0,30.7,21.7,-99.9,95,84,77,29.64,29.41,23,4,23,0.05
2013-3-1,34.2,26.5,-90.0,28.5,18.6,-99.9,100,83,72,29.76,29.60,15,3,15,0.09
2013-3-2,34.0,25.0,-90.0,23.0,10.5,-99.9,100,69,51,29.80,29.73,24,2,24,0.08
2013-3-3,34.7,25.4,-90.0,25.0,13.1,-99.9,88,72,62,29.73,29.51,13,2,13,0.04
2013-3-4,44.7,35.6,31.9,99.9,21.9,-99.9,84,71,57,29.52,29.28,28,6,28,0.04
2013-3-5,36.1,31.0,-90.0,30.7,19.5,-99.9,93,79,65,29.70,29.37,37,7,37,0.10
2013-3-6,35.4,28.9,21.4,23.4,14.6,-99.9,85,69,60,29.89,29.69,28,4,28,0.02
2013-3-7,39.5,27.5,-90.0,30.4,15.2,-99.9,92,75,57,29.92,29.82,13,2,13,0.00
2013-3-8,48.4,38.1,29.6,34.1,23.7,-99.9,89,70,55,29.89,29.65,23,5,23,0.00
2013-3-9,59.6,45.5,-90.0,45.4,34.8,-99.9,93,74,48,29.65,29.24,21,5,21,0.91
2013-3-10,52.4,48.1,38.2,50.5,45.1,-99.9,95,92,85,29.26,29.04,23,3,23,0.49
2013-3-11,38.1,30.0,-90.0,36.3,20.5,-99.9,93,83,74,29.48,29.21,26,5,26,0.21
2013-3-12,42.8,31.8,-21.4,30.4,16.8,-99.9,86,72,55,29.74,29.46,33,5,33,0.08
2013-3-13,40.7,30.4,-23.6,22.3,13.5,-99.9,75,59,40,29.94,29.73,25,4,25,0.00
2013-3-14,60.6,40.6,-24.6,38.9,23.1,-99.9,70,57,44,29.89,29.56,21,4,21,0.00
2013-3-15,72.8,49.0,-90.0,51.5,28.8,-99.9,83,62,41,29.58,29.15,17,1,17,0.00
2013-3-16,52.9,39.4,-90.0,45.4,29.4,-99.9,92,78,72,29.60,29.14,20,3,20,0.00
2013-3-17,40.2,33.6,-90.0,33.5,23.7,-99.9,99,78,68,29.63,29.33,20,4,20,0.10
2013-3-18,51.7,37.7,-40.4,37.3,27.0,-99.9,95,75,41,29.53,29.21,41,5,41,0.11
2013-3-19,45.4,34.5,27.7,22.8,13.2,-99.9,64,48,31,29.72,29.51,23,4,23,0.00
2013-3-20,36.2,27.2,20.7,26.6,9.7,-99.9,73,55,36,29.81,29.64,28,5,28,0.00
2013-3-21,36.9,25.9,-37.0,17.6,6.8,-99.9,75,55,39,29.65,29.49,10,1,10,0.00
2013-3-22,39.9,30.8,-41.5,25.8,14.1,-99.9,80,62,50,29.57,29.50,12,1,12,0.00
2013-3-23,51.3,40.4,-34.4,33.3,22.8,-99.9,87,57,40,29.57,29.39,18,3,18,0.05
2013-3-24,35.7,30.5,-90.0,32.3,26.2,-99.9,100,92,87,29.45,29.22,24,4,24,0.02
2013-3-25,35.4,30.4,-90.0,30.2,23.5,-99.9,94,85,73,29.72,29.39,26,4,26,0.10
2013-3-26,41.2,32.0,-90.0,28.1,20.2,-99.9,83,69,53,29.85,29.71,19,2,19,0.10
2013-3-27,46.0,34.6,25.1,29.0,17.0,-99.9,84,63,46,29.90,29.80,13,1,13,0.18
2013-3-28,54.0,41.3,33.8,36.5,23.3,-99.9,76,61,51,29.85,29.74,18,2,18,0.00
2013-3-29,59.6,43.1,-90.0,44.0,27.8,-99.9,86,69,50,29.77,29.69,12,1,12,0.00
2013-3-30,54.3,43.3,-90.0,46.7,31.6,-99.9,92,78,61,29.70,29.41,27,5,27,0.02
2013-3-31,65.3,51.8,-90.0,48.6,33.7,-99.9,93,66,40,29.50,29.36,28,4,28,0.00
2013-4-1,47.2,37.0,-24.2,32.1,15.5,-99.9,72,54,35,29.74,29.50,24,6,24,0.00
2013-4-10,54.6,49.5,-90.0,52.2,43.2,-99.9,96,91,89,29.39,29.13,22,3,22,0.21
2013-4-11,52.4,41.3,-90.0,50.4,31.5,-99.9,95,81,71,29.24,29.15,23,4,23,0.10
2013-4-12,45.8,38.4,37.4,34.9,24.7,-99.9,79,73,66,29.50,29.20,25,4,25,0.07
2013-4-13,56.0,42.7,-90.0,40.9,26.9,-99.9,85,64,48,29.57,29.37,19,3,19,0.05
2013-4-14,80.0,61.0,-90.0,56.9,35.3,-99.9,92,53,30,29.37,29.02,29,9,29,0.02
2013-4-15,58.2,53.0,-19.3,55.5,42.7,-99.9,93,79,68,29.53,29.21,19,2,19,0.02
2013-4-16,50.0,43.6,-90.0,40.9,32.7,-99.9,91,78,67,29.70,29.48,12,2,12,0.01
2013-4-17,57.4,48.6,-90.0,55.3,41.4,-99.9,95,87,72,29.66,29.15,29,5,29,0.01
2013-4-18,57.4,53.1,-27.7,55.8,51.2,-29.0,95,93,80,29.18,29.10,14,5,14,0.02
2013-4-27,49.7,40.1,48.8,47.0,6.4,-99.9,92,82,82,29.75,29.67,8,2,8,0.00
2013-5-3,41.7,39.0,37.3,40.4,31.1,-99.9,95,90,92,29.51,29.29,19,4,19,0.00
2013-5-4,48.2,41.8,-90.0,45.3,33.3,-99.9,95,89,86,29.54,29.30,10,0,10,0.00
2013-5-5,67.8,54.4,44.6,58.3,45.1,-99.9,96,84,68,29.54,29.41,22,2,22,0.00
2013-5-6,74.4,61.7,53.5,56.5,45.2,-99.9,94,69,48,29.54,29.47,17,1,17,0.01
2013-5-7,79.7,65.2,-90.0,54.3,39.5,-99.9,83,51,28,29.55,29.47,10,0,10,0.01
2013-5-8,79.3,63.5,-90.0,62.5,44.5,-99.9,85,61,35,29.53,29.46,17,1,17,0.01
2013-5-9,70.9,60.3,58.9,63.5,51.3,-99.9,95,87,72,29.46,29.33,39,2,39,0.00
2013-5-10,60.0,53.4,-90.0,57.9,40.3,-99.9,94,83,77,29.52,29.34,14,2,14,0.01
2013-5-11,62.7,52.4,43.9,51.9,32.0,-99.9,95,61,32,29.69,29.49,30,4,30,0.00
2013-5-12,61.6,47.9,36.9,35.2,23.0,-99.9,81,50,28,29.76,29.64,21,1,21,0.01
2013-5-13,73.3,56.9,-90.0,45.6,33.5,-99.9,77,49,29,29.71,29.47,17,2,17,0.00
2013-5-14,89.3,71.1,-90.0,60.8,41.6,-99.9,74,49,35,29.47,29.25,25,5,25,0.00
2013-5-15,88.6,73.2,-90.0,66.5,47.6,-99.9,90,53,44,29.39,29.29,27,3,27,0.00
2013-5-16,82.9,69.2,63.5,67.9,51.4,-99.9,94,74,55,29.43,29.33,18,1,18,0.00
2013-5-17,76.9,66.2,59.5,66.5,50.3,-99.9,88,74,67,29.47,29.40,10,0,10,0.00
2013-5-18,81.1,69.9,-66.0,68.4,55.4,-99.9,95,76,61,29.49,29.35,15,1,15,0.00
2013-5-19,89.0,74.7,69.4,74.8,59.2,-99.9,88,71,51,29.37,29.13,23,3,23,0.00
2013-5-20,82.3,67.2,61.8,68.4,51.4,-99.9,94,75,48,29.35,29.16,39,6,39,0.00
2013-5-21,77.3,67.3,-90.0,62.8,51.5,-99.9,92,72,54,29.26,29.17,19,4,19,0.00
2013-5-22,70.2,60.8,-90.0,57.9,43.3,-99.9,87,69,58,29.37,29.17,21,1,21,0.00
2013-5-23,66.7,58.6,55.1,56.5,45.6,-99.9,89,76,63,29.75,29.37,24,2,24,0.00
2013-5-24,69.2,55.9,48.3,51.1,36.7,-99.9,92,64,42,29.91,29.75,15,1,15,0.00
2013-5-25,66.8,54.8,-90.0,58.2,38.6,-99.9,94,74,58,29.84,29.65,22,2,22,0.00
2013-5-26,75.2,60.6,-90.0,65.7,43.8,-99.9,91,76,68,29.68,29.46,21,2,21,0.00
2013-5-27,73.4,64.1,63.7,66.3,51.0,-99.9,95,86,74,29.47,29.15,22,2,22,0.00
2013-5-28,77.6,70.7,-90.0,70.3,61.8,-99.9,95,81,71,29.46,29.21,32,5,32,0.00
2013-5-29,85.1,72.4,61.6,69.8,58.7,-99.9,94,72,50,29.45,29.26,30,5,30,0.00
2013-5-30,83.6,67.1,-90.0,68.5,50.7,-99.9,93,75,58,29.35,29.22,39,8,39,0.00
2013-5-31,70.3,63.3,-90.0,68.7,57.2,-99.9,96,91,89,29.38,29.18,19,2,19,0.00
2013-6-1,75.9,64.2,61.9,66.3,51.2,-99.9,95,79,54,29.39,29.19,27,2,27,0.00
2013-6-2,63.7,59.0,56.5,57.1,45.7,-99.9,86,76,69,29.55,29.37,17,1,17,0.00
2013-6-3,71.1,58.8,50.7,55.2,42.4,-99.9,88,68,53,29.62,29.49,14,0,14,0.00
2013-6-4,74.0,63.5,53.6,61.4,48.1,-99.9,91,70,59,29.60,29.48,16,1,16,0.00
2013-6-5,76.3,66.6,57.1,65.4,56.2,-99.9,94,78,62,29.53,29.38,9,0,9,0.00
2013-6-6,75.2,66.5,60.8,61.8,45.9,-99.9,93,65,47,29.42,29.36,16,1,16,0.00
2013-6-7,73.9,60.5,-90.0,59.0,43.8,-99.9,91,71,53,29.45,29.40,15,1,15,0.00
2013-6-8,78.0,65.2,-90.0,59.1,47.5,-99.9,94,65,45,29.47,29.37,19,1,19,0.00
2013-6-9,74.6,65.0,-90.0,64.0,52.1,-99.9,93,75,61,29.41,29.26,21,2,21,0.00
2013-6-10,78.4,67.1,62.0,65.1,54.7,-99.9,94,79,60,29.41,29.27,14,0,14,0.00
2013-6-11,88.1,71.8,-90.0,73.0,53.0,-99.9,93,71,53,29.43,29.31,18,1,18,0.00
2013-6-14,72.0,66.7,-90.0,66.4,57.9,-99.9,90,82,75,29.53,29.40,20,2,20,0.00
2013-6-15,89.6,73.2,66.2,74.5,60.5,-99.9,94,76,57,29.59,29.39,29,2,29,0.00
2013-6-16,82.8,72.7,66.5,72.6,63.0,-99.9,94,83,67,29.50,29.40,14,1,14,0.00
2013-6-17,83.6,73.9,67.6,73.4,58.7,-99.9,96,78,61,29.48,29.40,14,0,14,0.00
2013-6-18,84.6,70.1,-90.0,68.2,52.8,-99.9,95,69,44,29.50,29.41,16,1,16,0.00
2013-6-19,84.7,70.6,-90.0,66.3,51.0,-99.9,87,65,44,29.59,29.50,9,0,9,0.00
2013-6-20,89.3,74.2,-90.0,71.7,56.0,-99.9,90,65,48,29.60,29.50,18,2,18,0.00
2013-6-21,92.6,78.2,-90.0,75.8,57.3,-99.9,78,66,56,29.56,29.42,20,4,20,0.00
2013-6-22,92.6,77.9,-90.0,76.3,59.3,-99.9,82,69,51,29.56,29.43,22,4,22,0.00
2013-6-23,89.8,72.6,-90.0,74.2,62.6,-99.9,94,79,58,29.53,29.34,24,3,24,0.89
2013-6-24,89.7,76.1,-90.0,74.9,59.6,-99.9,91,72,57,29.54,29.35,20,4,21,0.01
2013-6-25,90.8,80.6,74.6,75.8,66.8,-99.9,84,71,59,29.42,29.28,21,3,21,0.00
2013-6-26,91.4,76.7,69.2,79.3,61.7,-99.9,89,77,66,29.32,29.21,24,2,24,0.11
2013-6-27,91.7,77.8,68.6,74.9,62.5,-99.9,91,72,49,29.42,29.31,15,0,15,0.00
2013-6-28,87.3,75.0,-90.0,68.5,53.8,-99.9,90,60,35,29.38,29.23,31,2,31,0.00
2013-6-29,79.4,68.7,63.1,68.0,58.1,-99.9,93,75,54,29.31,29.19,18,2,27,0.21
2013-6-30,77.1,66.3,-90.0,64.4,54.2,-99.9,93,78,60,29.49,29.30,20,1,20,0.09
2013-7-1,80.3,67.8,-90.0,62.6,48.8,-99.9,91,63,44,29.55,29.48,18,2,18,0.00
2013-7-2,78.2,66.6,-90.0,63.7,46.6,-99.9,80,63,45,29.58,29.51,8,1,15,0.00
2013-7-3,82.4,67.7,59.3,68.7,49.4,-99.9,90,68,50,29.58,29.49,11,0,14,0.00
2013-7-4,86.4,69.5,-90.0,68.0,50.9,-99.9,90,64,41,29.59,29.49,13,0,14,0.00
2013-7-5,84.9,70.8,-90.0,68.3,47.7,-99.9,89,63,49,29.57,29.48,10,1,16,0.00
2013-7-6,89.0,72.8,-90.0,71.5,51.9,-99.9,92,66,48,29.53,29.43,14,1,14,0.00
2013-7-7,91.2,78.2,70.7,71.8,55.4,-99.9,78,63,48,29.51,29.45,16,2,16,0.00
2013-7-8,90.4,78.0,-90.0,75.3,61.9,-99.9,87,68,57,29.57,29.48,16,1,16,0.01
2013-7-9,94.6,80.1,-90.0,75.4,64.1,-99.9,80,66,51,29.53,29.38,17,2,17,0.00
2013-7-10,88.7,78.3,-90.0,75.0,59.3,-99.9,90,66,51,29.53,29.35,10,1,17,0.03
2013-7-11,84.8,71.0,-90.0,65.9,51.6,-99.9,100,66,45,29.60,29.53,6,0,8,0.00
2013-7-12,85.0,68.4,-90.0,63.9,46.9,-99.9,92,62,38,29.64,29.55,16,1,16,0.00
2013-7-13,85.5,68.4,-90.0,67.1,52.1,-99.9,93,69,47,29.62,29.53,9,0,9,0.00
2013-7-14,87.2,75.3,65.5,69.6,58.8,-99.9,90,69,52,29.65,29.57,13,1,13,0.00
2013-7-15,90.1,76.8,-79.7,76.1,63.6,-99.9,93,76,59,29.73,29.64,18,0,19,0.15
2013-7-16,91.0,77.4,-90.0,76.4,59.8,-99.9,95,74,58,29.79,29.71,13,0,13,0.00
2013-7-17,94.7,81.3,-90.0,77.3,65.6,-99.9,89,69,50,29.82,29.69,7,0,7,0.00
2013-7-18,95.6,82.7,-90.0,74.9,62.8,-99.9,88,63,44,29.72,29.49,12,0,12,0.00
2013-7-19,97.0,82.6,-90.0,73.5,59.8,-99.9,82,59,39,29.50,29.34,18,1,18,0.00
2013-7-20,88.0,78.4,-90.0,72.6,59.8,-99.9,86,67,57,29.42,29.34,9,0,9,0.00
2013-7-21,81.4,70.3,-90.0,72.9,61.1,-99.9,94,86,71,29.43,29.30,20,1,20,0.21
2013-7-22,91.6,73.6,-90.0,75.5,60.8,-99.9,96,80,57,29.38,29.26,15,0,15,0.00
2013-7-23,85.9,72.3,-90.0,72.9,56.8,-99.9,90,71,51,29.44,29.27,14,1,14,0.00
2013-7-24,79.0,67.3,61.9,61.8,49.0,-99.9,90,68,50,29.55,29.44,10,0,13,0.00
2013-7-25,83.8,68.4,-90.0,64.9,46.9,-99.9,92,64,47,29.63,29.53,11,0,11,0.00
2013-7-26,79.1,68.6,-90.0,70.8,54.2,-99.9,88,73,67,29.56,29.42,17,2,17,0.06
2013-7-27,73.8,62.1,-90.0,58.0,44.7,-99.9,92,66,45,29.54,29.47,17,1,17,0.00
2013-7-28,79.3,63.6,-90.0,55.5,43.6,-99.9,83,59,37,29.57,29.49,15,1,15,0.00
2013-7-29,78.4,62.8,-90.0,64.7,47.6,-99.9,94,74,46,29.65,29.57,11,0,11,0.00
2013-7-30,79.8,69.6,-90.0,72.4,61.1,-99.9,95,86,74,29.62,29.49,12,1,12,0.44
2013-7-31,78.0,69.3,67.2,70.1,54.4,-99.9,95,83,72,29.58,29.52,2,0,8,0.01
2013-8-1,86.8,73.0,-90.0,69.0,54.1,-99.9,95,69,43,29.59,29.47,2,0,6,0.00
2013-8-2,82.2,72.1,-90.0,72.1,62.8,-99.9,93,80,67,29.47,29.41,6,1,12,0.17
2013-8-3,83.4,70.8,-90.0,68.2,59.8,-99.9,95,75,48,29.65,29.45,3,0,10,0.00
2013-8-4,81.0,68.9,-90.0,64.5,54.7,-99.9,93,72,48,29.69,29.58,2,0,8,0.00
2013-8-5,79.0,71.0,-21.1,71.6,59.2,-99.9,90,77,71,29.60,29.35,8,2,14,0.00
2013-8-6,85.7,73.9,68.0,74.0,62.5,-99.9,95,82,67,29.41,29.32,6,1,10,0.00
2013-8-7,84.6,74.1,-15.6,76.1,67.0,-99.9,94,87,68,29.45,29.28,4,0,9,0.19
2013-8-8,81.2,69.0,-90.0,71.4,58.0,-99.9,93,83,71,29.50,29.43,2,0,7,0.00
2013-8-9,80.9,69.9,-90.0,70.1,58.8,-99.9,94,80,64,29.59,29.47,1,0,5,0.00
2013-8-10,83.5,68.6,-90.0,65.4,50.6,-99.9,90,65,43,29.68,29.59,3,0,9,0.00
2013-8-11,85.7,70.4,59.9,66.3,52.7,-99.9,91,67,49,29.66,29.53,2,0,7,0.00
2013-8-12,79.5,69.4,65.1,73.2,55.9,-99.9,93,80,71,29.56,29.43,5,0,6,0.14
2013-8-13,78.5,62.9,-90.0,65.6,45.6,-99.9,94,74,53,29.66,29.49,3,0,16,0.01
2013-8-14,76.3,61.9,34.4,55.5,41.7,-99.9,94,67,42,29.73,29.64,2,0,8,0.00
2013-8-15,73.8,60.7,-90.0,58.4,39.5,-99.9,93,68,51,29.68,29.59,2,0,8,0.00
2013-8-16,78.1,65.1,-90.0,60.6,48.4,-99.9,91,70,48,29.68,29.62,3,0,11,0.00
2013-8-17,81.0,65.6,-90.0,62.6,48.8,-99.9,95,69,45,29.71,29.63,2,0,9,0.00
2013-8-18,83.7,67.7,-90.0,65.6,54.8,-99.9,94,72,50,29.70,29.59,2,0,8,0.00
2013-8-19,86.4,70.7,-90.0,68.1,51.8,-99.9,93,68,47,29.64,29.52,3,0,11,0.00
2013-8-20,89.4,75.7,-90.0,69.1,55.8,-99.9,88,65,41,29.61,29.51,3,0,11,0.00
2013-8-21,90.4,76.5,68.6,69.2,60.3,-99.9,86,67,46,29.61,29.51,5,1,15,0.00
2013-8-22,89.5,74.0,-90.0,75.7,59.3,-99.9,88,73,57,29.60,29.51,2,0,9,0.00
2013-8-23,89.7,75.4,-90.0,74.6,63.8,-99.9,93,75,56,29.62,29.54,2,0,8,0.00
2013-8-24,90.0,76.7,-90.0,73.4,61.1,-99.9,93,71,54,29.70,29.59,4,1,10,0.00
2013-8-25,92.0,77.1,-21.7,70.1,56.4,-99.9,83,61,37,29.75,29.65,6,1,12,0.00
2013-8-26,94.5,78.4,70.6,74.2,57.9,-99.9,88,64,41,29.68,29.52,5,1,11,0.00
2013-8-27,95.3,79.2,-90.0,71.2,57.1,-99.9,89,60,35,29.57,29.45,6,2,17,0.00
2013-8-28,95.8,83.0,73.1,71.0,57.3,-99.9,76,55,39,29.52,29.46,4,1,13,0.00
2013-8-29,96.6,84.1,73.7,75.1,64.0,-99.9,81,60,41,29.54,29.44,2,0,9,0.00
2013-8-30,99.7,82.3,-90.0,74.7,57.5,-99.9,87,59,37,29.45,29.30,6,1,16,0.00
2013-8-31,97.6,83.8,-82.0,76.6,63.1,-99.9,85,63,47,29.32,29.24,5,1,11,0.00
2013-9-1,91.0,76.2,-90.0,74.9,58.7,-99.9,95,71,42,29.39,29.28,3,0,12,0.00
2013-9-2,82.6,69.4,-43.2,64.7,50.1,-99.9,89,65,46,29.50,29.39,5,1,11,0.00
2013-9-3,81.9,66.4,54.5,59.7,48.5,-99.9,93,65,39,29.61,29.50,1,0,10,0.00
2013-9-4,87.8,68.7,-20.8,62.1,49.6,-99.9,92,62,30,29.67,29.56,2,0,7,0.00
2013-9-5,90.2,73.7,-90.0,65.9,54.1,-99.9,86,62,38,29.70,29.62,2,0,8,0.00
2013-9-6,91.3,75.1,-90.0,66.1,53.7,-99.9,85,60,30,29.67,29.50,3,0,8,0.00
2013-9-7,94.8,77.4,-90.0,68.1,55.4,-99.9,82,57,34,29.53,29.38,5,1,12,0.00
2013-9-8,91.7,76.1,-90.0,74.9,59.9,-99.9,93,71,54,29.47,29.35,9,2,18,0.44
2013-9-9,98.0,81.4,-90.0,71.0,59.4,-99.9,89,59,34,29.44,29.36,7,2,17,0.00
2013-9-10,95.8,80.4,-90.0,70.6,56.6,-99.9,75,53,35,29.56,29.44,9,2,19,0.00
2013-9-11,96.7,81.0,76.1,68.9,54.1,-99.9,73,52,32,29.61,29.50,5,1,18,0.00
2013-9-12,84.2,70.7,64.0,69.8,55.6,-99.9,94,71,35,29.62,29.52,5,1,14,0.39
2013-9-13,75.5,61.2,53.7,57.9,39.6,-99.9,85,63,30,29.69,29.60,3,0,11,0.00
2013-9-14,74.4,59.3,-90.0,51.1,41.7,-99.9,92,61,41,29.68,29.51,2,0,12,0.00
2013-9-15,80.0,64.5,-90.0,65.9,49.8,-99.9,92,68,49,29.67,29.46,9,2,21,0.07
2013-9-16,70.3,59.1,-13.0,58.6,46.9,-99.9,92,80,63,29.82,29.66,3,1,11,0.00
2013-9-17,67.0,59.5,54.8,62.6,48.6,-99.9,93,86,83,29.76,29.56,2,0,9,0.01
2013-9-18,88.2,72.1,-90.0,70.8,57.5,-99.9,94,74,55,29.56,29.39,9,4,20,0.00
2013-9-19,91.4,77.2,-90.0,71.2,57.7,-99.9,93,67,46,29.43,29.30,13,4,24,0.07
2013-9-20,72.5,65.2,55.8,66.5,52.1,-99.9,95,78,53,29.45,29.36,4,1,13,0.15
2013-9-21,72.3,56.5,-90.0,52.4,41.3,-99.9,92,70,45,29.51,29.42,5,1,13,0.00
2013-9-22,75.9,58.5,-90.0,55.4,44.1,-99.9,95,70,43,29.54,29.43,2,0,9,0.00
2013-9-23,76.1,60.9,-90.0,56.7,46.3,-99.9,94,70,46,29.53,29.41,6,1,15,0.00
2013-9-24,79.8,63.9,-90.0,63.3,49.6,-99.9,93,72,55,29.44,29.29,4,1,13,0.00
2013-9-25,80.7,67.5,57.8,65.3,56.4,-99.9,94,77,56,29.41,29.31,1,0,6,0.00
2013-9-26,84.3,68.9,-90.0,67.2,54.0,-99.9,93,70,52,29.50,29.38,4,1,11,0.00
2013-9-27,83.7,68.1,-90.0,65.6,49.6,-99.9,92,65,51,29.58,29.47,7,1,18,0.00
2013-9-28,76.8,67.0,-21.7,69.8,57.6,-99.9,93,79,64,29.56,29.41,12,3,22,0.36
2013-9-29,74.4,59.1,-35.3,57.7,44.9,-99.9,96,73,41,29.60,29.49,1,0,7,0.00
2013-9-30,78.4,60.3,-90.0,62.4,46.8,-99.9,93,74,53,29.49,29.36,7,2,13,0.00
2013-10-1,84.7,69.3,-90.0,68.2,57.4,-99.9,92,77,50,29.50,29.39,8,2,13,0.00
2013-10-2,85.8,69.1,-90.0,71.3,56.7,-99.9,95,78,50,29.55,29.42,2,0,8,0.00
2013-10-3,85.2,70.9,-37.4,70.4,57.2,-99.9,90,78,58,29.43,29.29,9,3,16,0.06
2013-10-4,88.2,75.3,-16.4,70.1,60.2,-99.9,93,71,48,29.43,29.34,10,4,17,0.00
2013-10-5,76.6,61.4,-90.0,69.4,51.2,-99.9,91,83,77,29.43,29.35,8,2,18,0.14
2013-10-6,53.8,46.9,-90.0,48.0,39.9,-99.9,92,82,67,29.40,29.32,7,2,18,0.04
2013-10-7,72.9,54.6,-90.0,48.9,35.6,-99.9,92,65,38,29.62,29.39,3,1,14,0.00
2013-10-8,78.1,62.2,-22.9,52.2,43.6,-99.9,83,59,37,29.68,29.58,5,1,15,0.00
2013-10-9,74.7,58.0,-90.0,54.4,42.3,-99.9,93,64,42,29.68,29.58,2,0,8,0.00
2013-10-10,79.6,62.1,-90.0,58.5,46.4,-99.9,92,69,42,29.64,29.48,5,1,12,0.00
2013-10-11,80.5,64.9,-90.0,60.9,48.5,-99.9,92,67,41,29.50,29.35,10,3,20,0.00
2013-10-12,74.3,61.6,-90.0,60.2,41.3,-99.9,88,59,31,29.72,29.39,6,2,16,0.00
2013-10-13,72.4,53.5,-90.0,43.6,32.7,-99.9,80,56,27,29.91,29.73,2,0,9,0.00
2013-10-14,69.0,54.5,-90.0,53.1,37.9,-99.9,80,60,38,29.86,29.52,6,1,15,0.02
2013-10-15,66.4,57.7,-90.0,60.9,46.6,-99.9,94,76,57,29.52,29.36,9,2,18,0.26
2013-10-16,56.3,49.7,46.0,43.8,37.1,-99.9,83,70,61,29.55,29.47,4,1,15,0.00
2013-10-17,64.9,52.2,-27.7,47.9,38.0,-99.9,93,70,43,29.50,29.37,6,1,16,0.06
2013-10-18,55.0,45.0,-22.5,44.7,31.5,-99.9,92,74,48,29.57,29.41,5,1,19,0.06
2013-10-19,59.0,44.1,-44.4,40.2,27.7,-99.9,97,70,41,29.52,29.38,8,2,17,0.00
2013-10-20,72.5,55.1,-22.3,44.8,35.3,-99.9,98,57,32,29.42,29.28,12,4,22,0.00
2013-10-21,59.6,46.8,41.3,43.6,29.0,-99.9,76,61,47,29.57,29.38,7,1,21,0.00
2013-10-22,56.6,42.4,36.9,45.7,29.8,-99.9,89,77,64,29.54,29.30,11,3,21,0.03
2013-10-23,47.8,38.3,-28.4,36.7,27.9,-99.9,92,75,45,29.64,29.53,5,1,14,0.01
2013-10-24,46.3,37.8,-46.7,36.2,23.0,-99.9,89,65,45,29.91,29.63,8,2,18,0.00
2013-10-25,56.9,41.1,-50.7,31.8,19.3,-99.9,86,56,30,29.98,29.66,7,1,15,0.00
2013-10-26,60.7,47.5,-90.0,39.3,25.5,-99.9,67,50,31,29.66,29.52,8,3,21,0.00
2013-10-27,60.2,43.4,-90.0,32.8,24.7,-99.9,86,56,33,29.64,29.49,4,0,10,0.00
2013-10-28,68.0,49.0,-90.0,39.2,27.0,-99.9,80,52,28,29.73,29.54,3,0,12,0.00
2013-10-29,56.7,49.6,-90.0,53.7,36.5,-99.9,95,76,58,29.73,29.55,7,1,13,0.08
2013-10-30,67.3,60.9,54.6,65.2,55.8,-99.9,96,93,92,29.54,29.25,8,1,15,0.36
2013-10-31,64.5,55.2,45.5,62.5,51.0,-99.9,95,92,91,29.26,28.92,9,3,20,0.11
2013-11-1,58.6,48.2,-90.0,44.8,37.5,-99.9,94,76,53,29.35,29.07,8,2,16,0.04
2013-11-2,54.0,45.5,-90.0,41.2,32.7,-99.9,87,69,48,29.69,29.35,8,2,21,0.02
2013-11-3,59.0,45.6,11.2,38.3,30.6,-99.9,94,65,40,29.76,29.58,10,3,19,0.03
2013-11-4,60.9,53.1,-90.0,47.7,39.4,-99.9,70,63,59,29.67,29.55,10,4,22,0.02
2013-11-5,59.1,53.7,-90.0,54.8,48.5,-99.9,94,88,71,29.70,29.41,11,5,18,0.01
2013-11-6,59.4,44.2,-90.0,57.4,38.7,-99.9,96,86,73,29.79,29.35,10,3,20,0.02
2013-11-7,54.9,40.4,31.0,39.1,30.3,-99.9,92,73,45,29.85,29.77,6,1,18,0.95
2013-11-8,57.5,43.6,4.7,37.3,26.0,-99.9,90,61,37,29.84,29.48,11,5,22,0.34
2013-11-9,68.2,52.3,-90.0,41.7,31.8,-99.9,72,52,27,29.78,29.47,11,3,21,0.00
2013-11-10,54.2,43.8,-90.0,35.2,27.0,-99.9,76,59,42,29.93,29.75,3,0,10,0.00
2013-11-11,59.8,42.7,-90.0,47.1,29.2,-99.9,89,67,52,30.08,29.66,11,4,21,0.00
2013-11-12,35.6,25.6,-90.0,22.2,11.3,-99.9,87,61,39,30.31,30.08,7,1,13,0.00
2013-11-13,46.2,32.5,3.4,19.0,9.3,-99.9,81,50,28,30.20,29.73,11,4,19,0.00
2013-11-14,54.9,42.4,-48.4,25.3,16.1,-99.9,57,42,29,29.73,29.48,13,6,21,0.00
2013-11-15,58.9,47.9,-10.7,44.1,28.5,-99.9,84,56,46,29.52,29.35,12,3,19,0.00
2013-11-16,65.2,56.2,-90.0,57.7,42.2,-99.9,88,77,73,29.35,29.03,17,10,31,0.10
2013-11-17,73.8,59.1,-19.0,63.5,44.7,-99.9,88,70,46,29.47,28.81,19,7,40,0.12
2013-11-18,54.2,43.1,-23.9,39.4,27.3,-99.9,86,64,38,29.81,29.47,9,2,21,0.00
2013-11-19,51.9,38.4,-90.0,31.7,18.9,-99.9,86,61,44,29.84,29.68,6,2,15,0.00
2013-11-20,45.2,39.5,-20.8,39.1,32.3,-99.9,93,78,60,29.69,29.48,9,3,21,0.59
2013-11-21,51.2,46.4,-29.7,46.8,40.5,-99.9,94,84,71,29.78,29.53,7,1,15,0.25
2013-11-22,38.5,32.1,-2.8,36.7,24.8,-99.9,100,85,79,30.08,29.77,7,3,22,0.14
2013-11-23,27.5,20.4,-90.0,21.6,6.8,-99.9,88,67,52,30.26,30.06,9,3,21,0.00
2013-11-24,30.4,20.0,-90.0,13.2,7.5,-99.9,89,64,41,30.27,29.89,7,1,12,0.00
2013-11-25,36.9,31.0,-90.0,22.4,12.2,-99.9,68,53,44,29.90,29.66,8,2,13,0.00
2013-11-26,36.5,27.3,-28.7,26.6,12.9,-99.9,86,65,47,29.80,29.61,11,4,22,0.00
2013-11-27,29.7,21.6,15.3,12.7,2.7,-99.9,73,56,41,29.90,29.70,9,2,14,0.00
2013-11-28,42.6,30.7,22.4,25.8,14.6,-99.9,91,58,45,30.02,29.67,8,3,14,0.00
2013-11-29,42.5,29.4,-90.0,27.2,11.2,-99.9,88,64,50,30.08,29.83,5,1,12,0.00
2013-11-30,55.9,40.5,-90.0,38.0,25.1,-99.9,84,66,51,29.84,29.57,8,3,15,0.00
2013-12-1,51.7,39.5,-90.0,36.8,27.0,-99.9,94,72,50,29.64,29.42,0,0,4,0.00
2013-12-2,50.9,40.7,-90.0,40.6,27.1,-99.9,89,74,66,29.43,29.16,6,1,10,0.00
2013-12-3,57.2,45.5,-90.0,50.8,36.1,-99.9,93,84,79,29.17,29.08,8,2,15,0.00
2013-12-4,62.3,47.5,-19.9,53.0,40.0,-99.9,93,83,65,29.41,28.99,11,3,23,0.00
2013-12-5,29.7,22.9,-20.5,23.5,8.8,-99.9,79,63,57,29.84,29.40,9,4,21,0.00
2013-12-6,21.2,16.3,-31.0,10.9,-2.4,-99.9,69,57,49,30.08,29.83,7,3,19,0.00
2013-12-9,21.9,16.8,-25.3,13.3,3.2,-99.9,84,68,66,29.84,29.75,7,2,14,0.00
2013-12-10,35.2,20.8,-90.0,16.3,4.6,-99.9,77,59,43,29.80,29.66,11,3,22,0.00
2013-12-11,27.6,18.9,-28.4,19.7,2.5,-99.9,75,60,40,30.15,29.75,10,3,23,0.00
2013-12-12,41.8,23.3,-19.0,19.2,2.8,-99.9,76,55,41,30.12,29.72,9,2,20,0.00
2013-12-13,37.2,30.9,26.1,32.1,21.9,-99.9,94,78,54,29.72,29.45,8,2,16,0.39
2013-12-14,33.0,27.8,-21.1,31.3,22.9,-99.9,95,90,84,29.67,29.38,0,0,0,0.04
2013-12-15,28.4,21.9,-90.0,23.7,14.3,-99.9,92,85,80,29.69,29.53,0,0,0,0.00
2013-12-16,27.2,22.2,-7.0,24.4,11.1,-99.9,99,87,89,29.63,29.51,0,0,0,0.00
2013-12-17,40.8,31.0,-90.0,32.9,19.6,-99.9,77,67,60,29.77,29.66,7,2,15,0.31
2013-12-18,49.9,35.7,-90.0,35.2,20.2,-99.9,72,60,49,29.75,29.35,14,7,24,0.21
2013-12-19,55.5,49.0,45.1,47.9,36.0,-99.9,81,73,67,29.37,29.22,11,6,20,0.00
2013-12-20,54.5,36.8,-90.0,49.7,27.4,-99.9,94,87,81,29.40,29.19,9,2,14,0.09
2013-12-21,31.5,28.4,-90.0,29.6,22.3,-99.9,94,90,91,29.39,29.12,5,1,9,0.00
2013-12-22,33.1,27.3,-18.7,30.9,20.8,-99.9,100,87,81,29.81,29.16,8,2,15,0.00
2013-12-23,20.2,12.4,5.3,16.2,3.1,-99.9,87,78,71,30.11,29.81,6,2,15,0.00
2013-12-24,23.1,10.7,-90.0,16.4,0.3,-99.9,83,74,67,30.11,29.80,7,2,13,0.00
2013-12-25,33.0,28.0,-90.0,29.2,22.3,-99.9,99,86,75,29.83,29.71,7,3,13,0.01
2013-12-26,44.2,32.1,-90.0,34.2,25.6,-99.9,90,79,65,29.82,29.69,10,4,19,0.16
2013-12-27,53.8,37.7,-19.6,36.5,28.0,-99.9,91,76,50,29.84,29.69,12,1,12,0.00
2013-12-31,28.4,28.4,28.4,22.4,22.4,22.4,78,78,78,29.65,29.65,0,0,12,0.00